createdAt,value
2018-12-27T00:00:17.456Z,6.19
2018-12-27T00:00:43.557Z,6.14
2018-12-27T00:01:09.693Z,6.28
2018-12-27T00:01:35.797Z,6.27
2018-12-27T00:02:01.910Z,6.33
2018-12-27T00:02:28.012Z,6.31
2018-12-27T00:02:54.921Z,6.2
2018-12-27T00:03:21.106Z,6.28
2018-12-27T00:03:47.207Z,6.3
2018-12-27T00:04:13.325Z,6.27
2018-12-27T00:04:39.419Z,6.28
2018-12-27T00:05:05.522Z,6.26
2018-12-27T00:05:31.626Z,6.28
2018-12-27T00:05:57.733Z,6.27
2018-12-27T00:06:23.828Z,6.26
2018-12-27T00:06:49.939Z,6.22
2018-12-27T00:07:16.040Z,6.28
2018-12-27T00:07:42.145Z,6.24
2018-12-27T00:08:08.247Z,6.3
2018-12-27T00:08:34.383Z,6.22
2018-12-27T00:09:00.491Z,6.26
2018-12-27T00:09:26.595Z,6.27
2018-12-27T00:09:52.700Z,6.26
2018-12-27T00:10:18.805Z,6.27
2018-12-27T00:10:44.909Z,6.26
2018-12-27T00:11:11.012Z,6.3
2018-12-27T00:11:37.141Z,6.31
2018-12-27T00:12:03.256Z,6.31
2018-12-27T00:12:29.386Z,6.24
2018-12-27T00:12:55.486Z,6.24
2018-12-27T00:13:21.593Z,6.31
2018-12-27T00:13:47.724Z,6.27
2018-12-27T00:14:13.823Z,6.22
2018-12-27T00:14:39.931Z,6.22
2018-12-27T00:15:06.045Z,6.26
2018-12-27T00:15:32.147Z,6.27
2018-12-27T00:15:58.256Z,6.26
2018-12-27T00:16:24.357Z,6.27
2018-12-27T00:16:50.494Z,6.28
2018-12-27T00:17:16.596Z,6.27
2018-12-27T00:17:42.702Z,6.24
2018-12-27T00:18:08.835Z,6.26
2018-12-27T00:18:34.936Z,6.24
2018-12-27T00:19:01.035Z,6.28
2018-12-27T00:19:27.141Z,6.27
2018-12-27T00:19:53.271Z,6.36
2018-12-27T00:20:19.403Z,6.35
2018-12-27T00:20:45.507Z,6.28
2018-12-27T00:21:11.620Z,6.39
2018-12-27T00:21:37.725Z,6.3
2018-12-27T00:22:03.826Z,6.35
2018-12-27T00:22:29.939Z,6.27
2018-12-27T00:22:56.041Z,6.35
2018-12-27T00:23:22.143Z,6.27
2018-12-27T00:23:48.252Z,6.36
2018-12-27T00:24:14.355Z,6.36
2018-12-27T00:24:40.456Z,6.41
2018-12-27T00:25:06.574Z,6.3
2018-12-27T00:25:32.709Z,6.41
2018-12-27T00:25:58.805Z,6.45
2018-12-27T00:26:24.908Z,6.33
2018-12-27T00:26:51.017Z,6.35
2018-12-27T00:27:17.121Z,6.39
2018-12-27T00:27:43.225Z,6.33
2018-12-27T00:28:09.324Z,6.3
2018-12-27T00:28:35.463Z,6.31
2018-12-27T00:29:01.627Z,6.42
2018-12-27T00:29:27.731Z,6.27
2018-12-27T00:29:53.837Z,6.39
2018-12-27T00:30:19.962Z,6.36
2018-12-27T00:30:46.069Z,6.35
2018-12-27T00:31:12.179Z,6.35
2018-12-27T00:31:38.280Z,6.36
2018-12-27T00:32:04.381Z,6.35
2018-12-27T00:32:30.486Z,6.28
2018-12-27T00:33:03.047Z,6.33
2018-12-27T00:33:23.741Z,6.31
2018-12-27T00:33:49.845Z,6.31
2018-12-27T00:34:15.957Z,6.3
2018-12-27T00:34:42.058Z,6.3
2018-12-27T00:35:08.172Z,6.41
2018-12-27T00:35:34.274Z,6.35
2018-12-27T00:36:00.374Z,6.36
2018-12-27T00:36:26.534Z,6.35
2018-12-27T00:36:52.643Z,6.41
2018-12-27T00:37:18.746Z,6.38
2018-12-27T00:37:44.854Z,6.39
2018-12-27T00:38:10.959Z,6.44
2018-12-27T00:38:37.065Z,6.48
2018-12-27T00:39:03.174Z,6.48
2018-12-27T00:39:29.308Z,6.56
2018-12-27T00:39:55.442Z,6.48
2018-12-27T00:40:21.545Z,6.48
2018-12-27T00:40:47.649Z,6.48
2018-12-27T00:41:13.747Z,6.52
2018-12-27T00:41:39.876Z,6.49
2018-12-27T00:42:06.038Z,6.46
2018-12-27T00:42:32.170Z,6.51
2018-12-27T00:42:59.953Z,6.49
2018-12-27T00:43:25.375Z,6.44
2018-12-27T00:43:51.480Z,6.51
2018-12-27T00:44:18.093Z,6.51
2018-12-27T00:44:44.204Z,6.44
2018-12-27T00:45:10.294Z,6.44
2018-12-27T00:45:36.402Z,6.45
2018-12-27T00:46:02.536Z,6.39
2018-12-27T00:46:28.674Z,6.33
2018-12-27T00:46:54.779Z,6.48
2018-12-27T00:47:20.886Z,6.35
2018-12-27T00:47:46.996Z,6.39
2018-12-27T00:48:13.101Z,6.3
2018-12-27T00:48:39.206Z,6.38
2018-12-27T00:49:05.344Z,6.31
2018-12-27T00:49:31.452Z,6.28
2018-12-27T00:49:57.555Z,6.28
2018-12-27T00:50:23.661Z,6.28
2018-12-27T00:50:49.762Z,6.26
2018-12-27T00:51:15.865Z,6.24
2018-12-27T00:51:41.998Z,6.31
2018-12-27T00:52:08.126Z,6.33
2018-12-27T00:52:34.252Z,6.2
2018-12-27T00:53:00.364Z,6.33
2018-12-27T00:53:26.493Z,6.2
2018-12-27T00:53:52.596Z,6.28
2018-12-27T00:54:18.699Z,6.31
2018-12-27T00:54:44.806Z,6.22
2018-12-27T00:55:10.944Z,6.19
2018-12-27T00:55:37.050Z,6.3
2018-12-27T00:56:03.156Z,6.33
2018-12-27T00:56:29.289Z,6.35
2018-12-27T00:56:55.436Z,6.33
2018-12-27T00:57:21.536Z,6.28
2018-12-27T00:57:47.669Z,6.31
2018-12-27T00:58:13.783Z,6.38
2018-12-27T00:58:39.887Z,6.33
2018-12-27T00:59:05.993Z,6.26
2018-12-27T00:59:32.131Z,6.27
2018-12-27T00:59:58.242Z,6.26
2018-12-27T01:00:24.391Z,6.33
2018-12-27T01:00:50.498Z,6.27
2018-12-27T01:01:16.597Z,6.24
2018-12-27T01:01:42.709Z,6.22
2018-12-27T01:02:08.822Z,6.24
2018-12-27T01:02:34.918Z,6.28
2018-12-27T01:03:01.019Z,6.24
2018-12-27T01:03:28.113Z,6.27
2018-12-27T01:03:54.244Z,6.19
2018-12-27T01:04:20.348Z,6.19
2018-12-27T01:04:46.451Z,6.12
2018-12-27T01:05:12.555Z,6.2
2018-12-27T01:05:38.694Z,6.14
2018-12-27T01:06:04.844Z,6.22
2018-12-27T01:06:30.927Z,6.12
2018-12-27T01:06:57.031Z,6.12
2018-12-27T01:07:23.142Z,6.22
2018-12-27T01:07:49.247Z,6.16
2018-12-27T01:08:15.351Z,6.14
2018-12-27T01:08:41.484Z,6.05
2018-12-27T01:09:07.592Z,6.07
2018-12-27T01:09:33.691Z,6.19
2018-12-27T01:09:59.800Z,6.16
2018-12-27T01:10:25.905Z,6.17
2018-12-27T01:10:52.009Z,6.28
2018-12-27T01:11:18.113Z,6.24
2018-12-27T01:11:44.219Z,6.19
2018-12-27T01:12:10.323Z,6.14
2018-12-27T01:12:36.430Z,6.19
2018-12-27T01:13:02.541Z,6.16
2018-12-27T01:13:28.645Z,6.19
2018-12-27T01:13:54.778Z,6.2
2018-12-27T01:14:20.883Z,6.22
2018-12-27T01:14:46.989Z,6.16
2018-12-27T01:15:13.119Z,6.07
2018-12-27T01:15:39.228Z,6.14
2018-12-27T01:16:05.366Z,6.17
2018-12-27T01:16:31.471Z,6.2
2018-12-27T01:16:57.569Z,6.2
2018-12-27T01:17:23.673Z,6.16
2018-12-27T01:17:49.830Z,6.12
2018-12-27T01:18:15.940Z,6.07
2018-12-27T01:18:42.045Z,6.02
2018-12-27T01:19:08.207Z,6.11
2018-12-27T01:19:34.316Z,6.02
2018-12-27T01:20:00.415Z,6.02
2018-12-27T01:20:26.554Z,6.02
2018-12-27T01:20:53.282Z,6.05
2018-12-27T01:21:19.421Z,6.04
2018-12-27T01:21:45.518Z,6.01
2018-12-27T01:22:11.627Z,6.04
2018-12-27T01:22:37.737Z,6.02
2018-12-27T01:23:03.851Z,6.08
2018-12-27T01:23:29.964Z,6.05
2018-12-27T01:23:56.074Z,6.07
2018-12-27T01:24:22.172Z,6.05
2018-12-27T01:24:48.275Z,6.11
2018-12-27T01:25:14.383Z,6.07
2018-12-27T01:25:40.474Z,6.11
2018-12-27T01:26:06.588Z,6.11
2018-12-27T01:26:32.693Z,6.16
2018-12-27T01:26:58.801Z,6.2
2018-12-27T01:27:24.909Z,6.17
2018-12-27T01:27:51.011Z,6.2
2018-12-27T01:28:17.122Z,6.14
2018-12-27T01:28:43.216Z,6.14
2018-12-27T01:29:09.325Z,6.26
2018-12-27T01:29:35.430Z,6.3
2018-12-27T01:30:01.560Z,6.33
2018-12-27T01:30:27.698Z,6.27
2018-12-27T01:30:53.801Z,6.3
2018-12-27T01:31:19.942Z,6.31
2018-12-27T01:31:50.541Z,6.31
2018-12-27T01:32:13.146Z,6.27
2018-12-27T01:32:39.248Z,6.31
2018-12-27T01:33:05.365Z,6.24
2018-12-27T01:33:32.479Z,6.26
2018-12-27T01:33:58.620Z,6.27
2018-12-27T01:34:24.747Z,6.27
2018-12-27T01:34:50.858Z,6.3
2018-12-27T01:35:16.986Z,6.27
2018-12-27T01:35:43.096Z,6.3
2018-12-27T01:36:09.204Z,6.28
2018-12-27T01:36:35.306Z,6.31
2018-12-27T01:37:01.418Z,6.3
2018-12-27T01:37:27.521Z,6.39
2018-12-27T01:37:53.651Z,6.35
2018-12-27T01:38:19.753Z,6.3
2018-12-27T01:38:45.855Z,6.35
2018-12-27T01:39:11.960Z,6.38
2018-12-27T01:39:38.076Z,6.45
2018-12-27T01:40:04.208Z,6.46
2018-12-27T01:40:30.313Z,6.42
2018-12-27T01:40:56.443Z,6.38
2018-12-27T01:41:22.552Z,6.41
2018-12-27T01:41:48.650Z,6.38
2018-12-27T01:42:14.764Z,6.51
2018-12-27T01:42:40.864Z,6.42
2018-12-27T01:43:07.011Z,6.39
2018-12-27T01:43:33.111Z,6.38
2018-12-27T01:43:59.219Z,6.39
2018-12-27T01:44:25.358Z,6.38
2018-12-27T01:44:51.462Z,6.44
2018-12-27T01:45:17.598Z,6.42
2018-12-27T01:45:43.710Z,6.44
2018-12-27T01:46:09.816Z,6.49
2018-12-27T01:46:35.928Z,6.56
2018-12-27T01:47:02.027Z,6.48
2018-12-27T01:47:28.126Z,6.52
2018-12-27T01:47:54.236Z,6.42
2018-12-27T01:48:20.350Z,6.51
2018-12-27T01:48:46.539Z,6.54
2018-12-27T01:49:12.647Z,6.49
2018-12-27T01:49:38.812Z,6.49
2018-12-27T01:50:04.916Z,6.56
2018-12-27T01:50:31.021Z,6.49
2018-12-27T01:50:57.128Z,6.44
2018-12-27T01:51:23.236Z,6.45
2018-12-27T01:51:49.335Z,6.36
2018-12-27T01:52:15.445Z,6.39
2018-12-27T01:52:41.543Z,6.41
2018-12-27T01:53:07.660Z,6.28
2018-12-27T01:53:33.769Z,6.33
2018-12-27T01:53:59.861Z,6.38
2018-12-27T01:54:25.994Z,6.3
2018-12-27T01:54:52.101Z,6.33
2018-12-27T01:55:18.211Z,6.28
2018-12-27T01:55:44.350Z,6.24
2018-12-27T01:56:10.478Z,6.2
2018-12-27T01:56:36.614Z,6.26
2018-12-27T01:57:02.723Z,6.26
2018-12-27T01:57:28.824Z,6.2
2018-12-27T01:57:54.993Z,6.26
2018-12-27T01:58:21.096Z,6.28
2018-12-27T01:58:47.198Z,6.2
2018-12-27T01:59:13.306Z,6.19
2018-12-27T01:59:39.413Z,6.17
2018-12-27T02:00:05.519Z,6.19
2018-12-27T02:00:31.662Z,6.2
2018-12-27T02:00:57.765Z,6.2
2018-12-27T02:01:23.866Z,6.17
2018-12-27T02:01:49.998Z,6.17
2018-12-27T02:02:16.104Z,6.07
2018-12-27T02:02:42.203Z,6.09
2018-12-27T02:03:08.321Z,6.08
2018-12-27T02:03:35.444Z,6.19
2018-12-27T02:04:01.544Z,6.22
2018-12-27T02:04:27.672Z,6.2
2018-12-27T02:04:53.779Z,6.16
2018-12-27T02:05:19.882Z,6.2
2018-12-27T02:05:45.982Z,6.19
2018-12-27T02:06:12.090Z,6.19
2018-12-27T02:06:38.222Z,6.2
2018-12-27T02:07:04.390Z,6.28
2018-12-27T02:07:30.488Z,6.17
2018-12-27T02:07:56.590Z,6.07
2018-12-27T02:08:22.720Z,6.09
2018-12-27T02:08:48.826Z,6.08
2018-12-27T02:09:14.940Z,6.08
2018-12-27T02:09:41.038Z,6.05
2018-12-27T02:10:07.135Z,6.09
2018-12-27T02:10:33.248Z,6.08
2018-12-27T02:10:59.371Z,6.07
2018-12-27T02:11:25.484Z,6.02
2018-12-27T02:11:51.587Z,6.09
2018-12-27T02:12:17.693Z,6.05
2018-12-27T02:12:43.828Z,6.09
2018-12-27T02:13:09.960Z,6.07
2018-12-27T02:13:36.065Z,6.07
2018-12-27T02:14:02.171Z,6.05
2018-12-27T02:14:28.275Z,6.02
2018-12-27T02:14:54.380Z,6.07
2018-12-27T02:15:20.479Z,6.01
2018-12-27T02:15:46.588Z,5.94
2018-12-27T02:16:12.702Z,5.94
2018-12-27T02:16:38.829Z,5.84
2018-12-27T02:17:04.933Z,5.89
2018-12-27T02:17:31.040Z,5.86
2018-12-27T02:17:57.141Z,5.8
2018-12-27T02:18:23.246Z,5.79
2018-12-27T02:18:49.358Z,5.79
2018-12-27T02:19:15.465Z,5.83
2018-12-27T02:19:41.598Z,5.89
2018-12-27T02:20:07.734Z,5.87
2018-12-27T02:20:33.836Z,5.84
2018-12-27T02:20:59.944Z,5.87
2018-12-27T02:21:26.050Z,5.83
2018-12-27T02:21:52.156Z,5.76
2018-12-27T02:22:18.256Z,5.82
2018-12-27T02:22:44.362Z,5.84
2018-12-27T02:23:10.465Z,5.83
2018-12-27T02:23:36.574Z,5.76
2018-12-27T02:24:02.686Z,5.76
2018-12-27T02:24:28.817Z,5.8
2018-12-27T02:24:54.913Z,5.76
2018-12-27T02:25:21.119Z,5.86
2018-12-27T02:25:47.255Z,5.89
2018-12-27T02:26:13.363Z,5.84
2018-12-27T02:26:39.465Z,5.93
2018-12-27T02:27:05.571Z,5.84
2018-12-27T02:27:31.705Z,5.99
2018-12-27T02:27:57.812Z,5.94
2018-12-27T02:28:23.911Z,6.01
2018-12-27T02:28:50.020Z,5.98
2018-12-27T02:29:16.151Z,6.05
2018-12-27T02:29:42.294Z,5.93
2018-12-27T02:30:08.399Z,5.9
2018-12-27T02:30:34.594Z,6.02
2018-12-27T02:31:00.740Z,5.97
2018-12-27T02:31:26.848Z,6.01
2018-12-27T02:31:53.003Z,6.02
2018-12-27T02:32:19.136Z,6.09
2018-12-27T02:32:45.243Z,6.12
2018-12-27T02:33:11.354Z,6.08
2018-12-27T02:33:39.539Z,6.07
2018-12-27T02:34:05.646Z,6.08
2018-12-27T02:34:31.801Z,6.08
2018-12-27T02:34:57.947Z,6.08
2018-12-27T02:35:24.076Z,6.11
2018-12-27T02:35:50.223Z,6.05
2018-12-27T02:36:16.321Z,6.04
2018-12-27T02:36:42.444Z,5.99
2018-12-27T02:37:08.557Z,5.97
2018-12-27T02:37:34.662Z,5.99
2018-12-27T02:38:00.770Z,5.98
2018-12-27T02:38:26.889Z,5.99
2018-12-27T02:38:53.007Z,5.89
2018-12-27T02:39:19.131Z,5.93
2018-12-27T02:39:45.485Z,5.98
2018-12-27T02:40:11.611Z,6.04
2018-12-27T02:40:37.778Z,5.94
2018-12-27T02:41:03.889Z,6.04
2018-12-27T02:41:30.062Z,6.04
2018-12-27T02:41:56.244Z,6.02
2018-12-27T02:42:22.347Z,5.99
2018-12-27T02:42:48.452Z,5.94
2018-12-27T02:43:14.616Z,6.05
2018-12-27T02:43:40.731Z,5.93
2018-12-27T02:44:06.857Z,6.02
2018-12-27T02:44:32.972Z,5.87
2018-12-27T02:44:59.094Z,5.9
2018-12-27T02:45:25.205Z,5.94
2018-12-27T02:45:51.349Z,5.89
2018-12-27T02:46:17.502Z,5.83
2018-12-27T02:46:43.664Z,5.83
2018-12-27T02:47:09.827Z,5.91
2018-12-27T02:47:35.959Z,5.84
2018-12-27T02:48:02.060Z,5.87
2018-12-27T02:48:28.167Z,5.87
2018-12-27T02:48:54.281Z,5.86
2018-12-27T02:49:20.386Z,5.87
2018-12-27T02:49:46.486Z,5.91
2018-12-27T02:50:12.588Z,5.9
2018-12-27T02:50:38.727Z,5.89
2018-12-27T02:51:04.835Z,5.98
2018-12-27T02:51:30.946Z,5.98
2018-12-27T02:51:57.067Z,5.91
2018-12-27T02:52:23.170Z,5.98
2018-12-27T02:52:49.283Z,5.84
2018-12-27T02:53:15.399Z,5.87
2018-12-27T02:53:41.540Z,5.84
2018-12-27T02:54:07.658Z,5.8
2018-12-27T02:54:33.795Z,5.93
2018-12-27T02:54:59.908Z,5.91
2018-12-27T02:55:26.014Z,5.98
2018-12-27T02:55:52.151Z,5.89
2018-12-27T02:56:18.285Z,5.86
2018-12-27T02:56:44.418Z,5.93
2018-12-27T02:57:10.574Z,5.93
2018-12-27T02:57:36.766Z,5.91
2018-12-27T02:58:02.876Z,5.97
2018-12-27T02:58:28.987Z,5.94
2018-12-27T02:58:55.111Z,5.9
2018-12-27T02:59:21.244Z,5.94
2018-12-27T02:59:47.407Z,5.97
2018-12-27T03:00:13.502Z,5.94
2018-12-27T03:00:39.637Z,5.98
2018-12-27T03:01:05.768Z,5.99
2018-12-27T03:01:31.908Z,6.01
2018-12-27T03:01:58.077Z,6.05
2018-12-27T03:02:24.241Z,6.05
2018-12-27T03:02:50.343Z,6.02
2018-12-27T03:03:16.497Z,5.94
2018-12-27T03:03:44.082Z,5.97
2018-12-27T03:04:09.723Z,6.05
2018-12-27T03:04:35.817Z,6.02
2018-12-27T03:05:01.942Z,5.98
2018-12-27T03:05:28.049Z,6.01
2018-12-27T03:05:54.216Z,5.99
2018-12-27T03:06:20.326Z,5.97
2018-12-27T03:06:46.447Z,5.91
2018-12-27T03:07:12.618Z,5.93
2018-12-27T03:07:38.716Z,5.9
2018-12-27T03:08:04.856Z,5.86
2018-12-27T03:08:30.964Z,5.97
2018-12-27T03:08:57.057Z,5.89
2018-12-27T03:09:23.195Z,5.89
2018-12-27T03:09:49.329Z,5.89
2018-12-27T03:10:15.422Z,5.84
2018-12-27T03:10:41.561Z,5.76
2018-12-27T03:11:07.630Z,5.69
2018-12-27T03:11:33.736Z,5.71
2018-12-27T03:11:59.869Z,5.68
2018-12-27T03:12:25.996Z,5.72
2018-12-27T03:12:52.172Z,5.72
2018-12-27T03:13:18.280Z,5.69
2018-12-27T03:13:44.408Z,5.71
2018-12-27T03:14:10.514Z,5.66
2018-12-27T03:14:36.649Z,5.65
2018-12-27T03:15:02.757Z,5.68
2018-12-27T03:15:28.859Z,5.73
2018-12-27T03:15:54.972Z,5.68
2018-12-27T03:16:21.070Z,5.61
2018-12-27T03:16:47.175Z,5.65
2018-12-27T03:17:13.312Z,5.66
2018-12-27T03:17:39.464Z,5.62
2018-12-27T03:18:05.577Z,5.65
2018-12-27T03:18:31.677Z,5.66
2018-12-27T03:18:57.786Z,5.62
2018-12-27T03:19:23.891Z,5.62
2018-12-27T03:19:50.066Z,5.54
2018-12-27T03:20:16.177Z,5.59
2018-12-27T03:20:42.305Z,5.57
2018-12-27T03:21:08.414Z,5.54
2018-12-27T03:21:34.550Z,5.53
2018-12-27T03:22:00.681Z,5.48
2018-12-27T03:22:26.791Z,5.5
2018-12-27T03:22:52.890Z,5.41
2018-12-27T03:23:18.996Z,5.59
2018-12-27T03:23:45.102Z,5.44
2018-12-27T03:24:11.222Z,5.57
2018-12-27T03:24:37.350Z,5.5
2018-12-27T03:25:03.451Z,5.41
2018-12-27T03:25:29.557Z,5.48
2018-12-27T03:25:55.665Z,5.38
2018-12-27T03:26:21.798Z,5.53
2018-12-27T03:26:47.908Z,5.39
2018-12-27T03:27:14.040Z,5.35
2018-12-27T03:27:40.137Z,5.41
2018-12-27T03:28:06.240Z,5.38
2018-12-27T03:28:32.351Z,5.41
2018-12-27T03:28:58.483Z,5.35
2018-12-27T03:29:24.615Z,5.44
2018-12-27T03:29:50.717Z,5.47
2018-12-27T03:30:16.843Z,5.41
2018-12-27T03:30:42.958Z,5.38
2018-12-27T03:31:09.085Z,5.35
2018-12-27T03:31:35.269Z,5.36
2018-12-27T03:32:01.485Z,5.46
2018-12-27T03:32:27.581Z,5.39
2018-12-27T03:32:53.684Z,5.39
2018-12-27T03:33:19.792Z,5.38
2018-12-27T03:33:52.580Z,5.33
2018-12-27T03:34:13.037Z,5.39
2018-12-27T03:34:39.143Z,5.32
2018-12-27T03:35:05.240Z,5.33
2018-12-27T03:35:31.345Z,5.32
2018-12-27T03:35:57.477Z,5.32
2018-12-27T03:36:23.577Z,5.39
2018-12-27T03:36:49.687Z,5.38
2018-12-27T03:37:15.844Z,5.39
2018-12-27T03:37:41.953Z,5.35
2018-12-27T03:38:08.056Z,5.32
2018-12-27T03:38:34.162Z,5.35
2018-12-27T03:39:00.262Z,5.39
2018-12-27T03:39:26.369Z,5.33
2018-12-27T03:39:52.466Z,5.3
2018-12-27T03:40:18.572Z,5.3
2018-12-27T03:40:44.753Z,5.3
2018-12-27T03:41:10.924Z,5.28
2018-12-27T03:41:37.054Z,5.25
2018-12-27T03:42:03.155Z,5.3
2018-12-27T03:42:29.319Z,5.35
2018-12-27T03:42:55.423Z,5.32
2018-12-27T03:43:21.524Z,5.28
2018-12-27T03:43:47.623Z,5.29
2018-12-27T03:44:13.738Z,5.29
2018-12-27T03:44:39.852Z,5.32
2018-12-27T03:45:05.958Z,5.21
2018-12-27T03:45:32.064Z,5.17
2018-12-27T03:45:58.169Z,5.11
2018-12-27T03:46:24.270Z,5.23
2018-12-27T03:46:50.383Z,5.11
2018-12-27T03:47:16.486Z,5.11
2018-12-27T03:47:42.589Z,5.2
2018-12-27T03:48:08.698Z,5.14
2018-12-27T03:48:34.807Z,5.14
2018-12-27T03:49:00.916Z,5.15
2018-12-27T03:49:27.046Z,5.14
2018-12-27T03:49:53.174Z,5.11
2018-12-27T03:50:19.271Z,5.12
2018-12-27T03:50:45.390Z,5.1
2018-12-27T03:51:11.499Z,5.15
2018-12-27T03:51:37.615Z,5.07
2018-12-27T03:52:03.760Z,5.15
2018-12-27T03:52:29.849Z,5.12
2018-12-27T03:52:56.005Z,5.11
2018-12-27T03:53:22.099Z,5.14
2018-12-27T03:53:48.210Z,5.17
2018-12-27T03:54:14.345Z,5.15
2018-12-27T03:54:40.459Z,5.1
2018-12-27T03:55:06.556Z,5.17
2018-12-27T03:55:32.662Z,5.08
2018-12-27T03:55:58.798Z,5.2
2018-12-27T03:56:24.931Z,5.2
2018-12-27T03:56:51.063Z,5.17
2018-12-27T03:57:17.164Z,5.11
2018-12-27T03:57:43.294Z,5.2
2018-12-27T03:58:09.402Z,5.18
2018-12-27T03:58:35.504Z,5.15
2018-12-27T03:59:01.614Z,5.21
2018-12-27T03:59:27.716Z,5.17
2018-12-27T03:59:53.830Z,5.26
2018-12-27T04:00:19.952Z,5.21
2018-12-27T04:00:46.061Z,5.29
2018-12-27T04:01:12.159Z,5.29
2018-12-27T04:01:38.266Z,5.3
2018-12-27T04:02:04.372Z,5.23
2018-12-27T04:02:30.470Z,5.33
2018-12-27T04:02:56.659Z,5.32
2018-12-27T04:03:22.767Z,5.32
2018-12-27T04:03:48.870Z,5.29
2018-12-27T04:04:16.950Z,5.28
2018-12-27T04:04:43.113Z,5.28
2018-12-27T04:05:09.303Z,5.28
2018-12-27T04:05:35.398Z,5.32
2018-12-27T04:06:01.501Z,5.26
2018-12-27T04:06:27.634Z,5.3
2018-12-27T04:06:53.761Z,5.28
2018-12-27T04:07:19.872Z,5.33
2018-12-27T04:07:45.976Z,5.35
2018-12-27T04:08:12.137Z,5.29
2018-12-27T04:08:38.249Z,5.32
2018-12-27T04:09:04.351Z,5.32
2018-12-27T04:09:30.480Z,5.35
2018-12-27T04:09:56.595Z,5.41
2018-12-27T04:10:22.725Z,5.39
2018-12-27T04:10:48.827Z,5.38
2018-12-27T04:11:14.933Z,5.46
2018-12-27T04:11:41.117Z,5.41
2018-12-27T04:12:07.215Z,5.41
2018-12-27T04:12:33.344Z,5.44
2018-12-27T04:12:59.457Z,5.39
2018-12-27T04:13:25.555Z,5.36
2018-12-27T04:13:51.668Z,5.38
2018-12-27T04:14:17.770Z,5.36
2018-12-27T04:14:43.876Z,5.39
2018-12-27T04:15:09.977Z,5.39
2018-12-27T04:15:36.084Z,5.39
2018-12-27T04:16:02.186Z,5.38
2018-12-27T04:16:28.310Z,5.39
2018-12-27T04:16:54.449Z,5.41
2018-12-27T04:17:20.584Z,5.39
2018-12-27T04:17:46.688Z,5.41
2018-12-27T04:18:12.825Z,5.36
2018-12-27T04:18:38.932Z,5.36
2018-12-27T04:19:05.061Z,5.39
2018-12-27T04:19:31.172Z,5.38
2018-12-27T04:19:57.299Z,5.41
2018-12-27T04:20:23.402Z,5.39
2018-12-27T04:20:49.504Z,5.43
2018-12-27T04:21:15.612Z,5.35
2018-12-27T04:21:41.716Z,5.35
2018-12-27T04:22:07.849Z,5.44
2018-12-27T04:22:33.951Z,5.39
2018-12-27T04:23:00.117Z,5.39
2018-12-27T04:23:26.225Z,5.35
2018-12-27T04:23:52.326Z,5.38
2018-12-27T04:24:18.457Z,5.36
2018-12-27T04:24:44.562Z,5.36
2018-12-27T04:25:10.699Z,5.38
2018-12-27T04:25:36.806Z,5.41
2018-12-27T04:26:02.907Z,5.38
2018-12-27T04:26:29.052Z,5.41
2018-12-27T04:26:55.173Z,5.39
2018-12-27T04:27:21.279Z,5.32
2018-12-27T04:27:47.382Z,5.38
2018-12-27T04:28:13.490Z,5.33
2018-12-27T04:28:39.598Z,5.38
2018-12-27T04:29:05.697Z,5.3
2018-12-27T04:29:31.796Z,5.29
2018-12-27T04:29:57.900Z,5.3
2018-12-27T04:30:24.007Z,5.32
2018-12-27T04:30:50.109Z,5.26
2018-12-27T04:31:16.219Z,5.29
2018-12-27T04:31:42.348Z,5.29
2018-12-27T04:32:08.452Z,5.28
2018-12-27T04:32:34.584Z,5.25
2018-12-27T04:33:00.687Z,5.17
2018-12-27T04:33:26.788Z,5.23
2018-12-27T04:33:52.890Z,5.11
2018-12-27T04:34:20.340Z,5.12
2018-12-27T04:34:46.471Z,5.17
2018-12-27T04:35:12.576Z,5.17
2018-12-27T04:35:38.680Z,5.12
2018-12-27T04:36:04.786Z,5.15
2018-12-27T04:36:30.888Z,5.2
2018-12-27T04:36:56.992Z,5.1
2018-12-27T04:37:23.094Z,5.14
2018-12-27T04:37:49.195Z,5.07
2018-12-27T04:38:15.304Z,5.1
2018-12-27T04:38:41.454Z,5.1
2018-12-27T04:39:07.556Z,5.08
2018-12-27T04:39:33.722Z,5.14
2018-12-27T04:39:59.826Z,5.12
2018-12-27T04:40:26.019Z,5.12
2018-12-27T04:40:52.126Z,5.02
2018-12-27T04:41:18.227Z,5.04
2018-12-27T04:41:44.330Z,5.1
2018-12-27T04:42:10.467Z,5.07
2018-12-27T04:42:36.601Z,5.1
2018-12-27T04:43:02.737Z,5.05
2018-12-27T04:43:28.908Z,5
2018-12-27T04:43:55.047Z,5.11
2018-12-27T04:44:21.175Z,5.02
2018-12-27T04:44:47.308Z,5.02
2018-12-27T04:45:13.417Z,5
2018-12-27T04:45:39.542Z,5
2018-12-27T04:46:05.675Z,5.02
2018-12-27T04:46:31.778Z,5.04
2018-12-27T04:46:57.916Z,5.05
2018-12-27T04:47:24.018Z,4.87
2018-12-27T04:47:50.149Z,4.89
2018-12-27T04:48:16.250Z,4.97
2018-12-27T04:48:42.350Z,4.93
2018-12-27T04:49:08.458Z,4.9
2018-12-27T04:49:34.598Z,4.89
2018-12-27T04:50:00.705Z,4.96
2018-12-27T04:50:26.800Z,4.87
2018-12-27T04:50:52.908Z,4.89
2018-12-27T04:51:19.014Z,4.93
2018-12-27T04:51:45.147Z,4.96
2018-12-27T04:52:11.280Z,4.93
2018-12-27T04:52:37.384Z,5
2018-12-27T04:53:03.491Z,4.93
2018-12-27T04:53:29.591Z,4.9
2018-12-27T04:53:55.695Z,4.99
2018-12-27T04:54:21.797Z,4.86
2018-12-27T04:54:47.933Z,4.8
2018-12-27T04:55:14.038Z,4.78
2018-12-27T04:55:40.148Z,4.77
2018-12-27T04:56:06.277Z,4.77
2018-12-27T04:56:32.398Z,4.8
2018-12-27T04:56:58.534Z,4.8
2018-12-27T04:57:24.696Z,4.77
2018-12-27T04:57:50.795Z,4.84
2018-12-27T04:58:16.902Z,4.8
2018-12-27T04:58:43.034Z,4.74
2018-12-27T04:59:09.142Z,4.75
2018-12-27T04:59:35.277Z,4.75
2018-12-27T05:00:01.390Z,4.8
2018-12-27T05:00:27.491Z,4.74
2018-12-27T05:00:53.594Z,4.8
2018-12-27T05:01:19.694Z,4.86
2018-12-27T05:01:45.816Z,4.75
2018-12-27T05:02:11.908Z,4.8
2018-12-27T05:02:38.017Z,4.78
2018-12-27T05:03:04.111Z,4.94
2018-12-27T05:03:30.246Z,4.78
2018-12-27T05:03:56.348Z,4.8
2018-12-27T05:04:23.459Z,4.87
2018-12-27T05:04:49.656Z,4.86
2018-12-27T05:05:15.858Z,4.77
2018-12-27T05:05:42.012Z,4.87
2018-12-27T05:06:08.144Z,4.87
2018-12-27T05:06:34.257Z,4.89
2018-12-27T05:07:00.354Z,4.92
2018-12-27T05:07:26.460Z,4.87
2018-12-27T05:07:52.569Z,4.93
2018-12-27T05:08:18.675Z,4.92
2018-12-27T05:08:44.775Z,4.89
2018-12-27T05:09:10.885Z,5
2018-12-27T05:09:36.997Z,5.08
2018-12-27T05:10:03.098Z,5.07
2018-12-27T05:10:29.205Z,5.02
2018-12-27T05:10:55.309Z,4.96
2018-12-27T05:11:21.406Z,5.07
2018-12-27T05:11:47.545Z,5.04
2018-12-27T05:12:13.703Z,5
2018-12-27T05:12:39.812Z,5.1
2018-12-27T05:13:05.912Z,5.04
2018-12-27T05:13:32.045Z,5.07
2018-12-27T05:13:58.275Z,5
2018-12-27T05:14:24.390Z,5
2018-12-27T05:14:50.497Z,5.02
2018-12-27T05:15:16.604Z,5.1
2018-12-27T05:15:42.707Z,5.12
2018-12-27T05:16:08.843Z,5.1
2018-12-27T05:16:34.953Z,5.11
2018-12-27T05:17:01.085Z,5.11
2018-12-27T05:17:27.219Z,5.12
2018-12-27T05:17:53.431Z,5.12
2018-12-27T05:18:19.499Z,5.08
2018-12-27T05:18:45.649Z,5.02
2018-12-27T05:19:11.749Z,5.11
2018-12-27T05:19:37.890Z,5.18
2018-12-27T05:20:03.991Z,5.14
2018-12-27T05:20:30.097Z,5.17
2018-12-27T05:20:56.202Z,5.21
2018-12-27T05:21:22.306Z,5.14
2018-12-27T05:21:48.403Z,5.15
2018-12-27T05:22:14.509Z,5.04
2018-12-27T05:22:40.610Z,5.14
2018-12-27T05:23:06.741Z,5.12
2018-12-27T05:23:32.845Z,5.08
2018-12-27T05:23:59.013Z,5.14
2018-12-27T05:24:25.116Z,5.11
2018-12-27T05:24:51.224Z,5.15
2018-12-27T05:25:17.329Z,5.08
2018-12-27T05:25:43.432Z,5.05
2018-12-27T05:26:09.533Z,5.08
2018-12-27T05:26:35.670Z,5.2
2018-12-27T05:27:01.800Z,5.08
2018-12-27T05:27:27.961Z,5.02
2018-12-27T05:27:54.096Z,5.04
2018-12-27T05:28:20.202Z,5.15
2018-12-27T05:28:46.309Z,5.12
2018-12-27T05:29:12.441Z,5.15
2018-12-27T05:29:38.546Z,5.07
2018-12-27T05:30:04.649Z,5.12
2018-12-27T05:30:30.805Z,5.17
2018-12-27T05:30:56.907Z,5.17
2018-12-27T05:31:23.014Z,5.28
2018-12-27T05:31:49.118Z,5.07
2018-12-27T05:32:15.224Z,5.12
2018-12-27T05:32:41.336Z,5.12
2018-12-27T05:33:07.438Z,5.14
2018-12-27T05:33:33.542Z,5.11
2018-12-27T05:33:59.643Z,5.15
2018-12-27T05:34:26.749Z,5.11
2018-12-27T05:34:52.858Z,5.02
2018-12-27T05:35:18.986Z,5.14
2018-12-27T05:35:45.085Z,5.05
2018-12-27T05:36:11.187Z,5.25
2018-12-27T05:36:37.296Z,5.1
2018-12-27T05:37:03.460Z,5.1
2018-12-27T05:37:29.586Z,5.12
2018-12-27T05:37:55.692Z,5.12
2018-12-27T05:38:21.799Z,5.11
2018-12-27T05:38:47.901Z,5.11
2018-12-27T05:39:14.024Z,5.08
2018-12-27T05:39:40.129Z,5.1
2018-12-27T05:40:06.232Z,5.04
2018-12-27T05:40:32.337Z,5.15
2018-12-27T05:40:58.438Z,5.18
2018-12-27T05:41:24.554Z,5.12
2018-12-27T05:41:50.654Z,5.1
2018-12-27T05:42:16.790Z,5.15
2018-12-27T05:42:42.906Z,5.15
2018-12-27T05:43:09.860Z,5.1
2018-12-27T05:43:35.965Z,5.17
2018-12-27T05:44:02.061Z,5.04
2018-12-27T05:44:28.164Z,5.05
2018-12-27T05:44:54.272Z,5.17
2018-12-27T05:45:20.382Z,5.17
2018-12-27T05:45:46.484Z,5.05
2018-12-27T05:46:12.603Z,5.08
2018-12-27T05:46:38.709Z,5.17
2018-12-27T05:47:04.849Z,5.1
2018-12-27T05:47:30.947Z,5.04
2018-12-27T05:47:57.066Z,5.21
2018-12-27T05:48:23.172Z,5.17
2018-12-27T05:48:49.274Z,5.12
2018-12-27T05:49:15.419Z,5.08
2018-12-27T05:49:41.553Z,5.1